Time;durP1;ratioP1;P1;durP2;ratioP2;P2;SDS_P1;SDS_P2;PMS_P1;PMS_P2;Temp;Humidity;BMP_temperature;BMP_pressure;BME280_temperature;BME280_humidity;BME280_pressure;Samples;Min_cycle;Max_cycle;Signal;HPM_P1;HPM_P2
2021/07/21 00:00:51;;;;;;;;;22.50;21.00;;;;;17.26;85.73;99629.31;3195081;41;2844064;-58
2021/07/21 00:03:21;;;;;;;;;26.33;21.33;;;;;17.19;85.80;99633.56;3194837;41;2854442;-59
2021/07/21 00:05:50;;;;;;;;;18.67;18.67;;;;;17.20;86.30;99629.88;3213779;41;3575194;-59
2021/07/21 00:08:19;;;;;;;;;21.50;18.50;;;;;17.26;86.28;99629.31;3189907;41;2836690;-59
2021/07/21 00:10:49;;;;;;;;;22.00;19.50;;;;;17.04;86.72;99629.53;3194004;41;2837712;-59
2021/07/21 00:13:27;;;;;;;;;20.00;18.00;;;;;17.02;86.04;99621.53;3192866;41;2485642;-59
2021/07/21 00:16:35;;;;;;;;;20.67;19.00;;;;;17.14;86.51;99634.97;3196615;41;2838020;-59
2021/07/21 00:18:57;;;;;;;;;21.50;20.00;;;;;16.87;88.87;99634.59;3207407;41;2836689;-59
2021/07/21 00:21:26;;;;;;;;;20.00;19.00;;;;;16.82;88.05;99636.84;3193667;41;2833556;-59
2021/07/21 00:23:54;;;;;;;;;20.33;19.00;;;;;16.90;87.01;99638.88;3196895;41;2840079;-59
2021/07/21 00:26:22;;;;;;;;;23.50;19.50;;;;;16.95;87.20;99631.19;3209753;41;2824213;-59
2021/07/21 00:28:50;;;;;;;;;23.00;19.00;;;;;17.05;86.48;99636.66;3197409;41;2827311;-59
2021/07/21 00:31:17;;;;;;;;;17.00;15.00;;;;;17.10;85.57;99631.69;3213976;41;2792924;-59
2021/07/21 00:33:48;;;;;;;;;19.50;17.50;;;;;16.99;85.97;99637.22;3194874;41;2816898;-59
2021/07/21 00:36:15;;;;;;;;;21.00;18.50;;;;;17.13;85.09;99639.56;3193070;41;2475237;-59
2021/07/21 00:38:42;;;;;;;;;24.50;18.50;;;;;17.17;84.79;99641.00;3191986;41;2481479;-59
2021/07/21 00:41:09;;;;;;;;;20.00;19.00;;;;;17.14;85.09;99651.25;3198923;41;2486033;-58
2021/07/21 00:43:37;;;;;;;;;18.50;18.50;;;;;16.90;87.52;99652.44;3197782;41;2830440;-58
2021/07/21 00:46:05;;;;;;;;;20.00;20.00;;;;;17.09;86.28;99662.53;3193868;41;2828337;-58
2021/07/21 00:48:33;;;;;;;;;21.33;20.67;;;;;16.57;88.20;99658.97;3196641;41;2833575;-58
2021/07/21 00:51:00;;;;;;;;;27.50;23.00;;;;;16.64;87.99;99657.41;3200648;41;2493960;-59
2021/07/21 00:53:28;;;;;;;;;20.00;18.00;;;;;16.89;86.43;99665.16;3196574;41;2832529;-59
2021/07/21 00:55:56;;;;;;;;;18.50;16.00;;;;;16.67;88.26;99659.88;3212981;41;2823183;-59
2021/07/21 00:58:23;;;;;;;;;22.50;21.00;;;;;16.89;86.89;99665.16;3194999;41;2491908;-59
2021/07/21 01:00:53;;;;;;;;;16.00;15.00;;;;;16.88;87.76;99652.59;3193891;41;3542943;-59
2021/07/21 01:03:22;;;;;;;;;17.33;17.33;;;;;16.99;86.35;99665.22;3197758;41;3547093;-58
2021/07/21 01:05:50;;;;;;;;;20.00;16.33;;;;;16.85;87.44;99658.31;3194423;41;3562680;-59
2021/07/21 01:08:17;;;;;;;;;18.00;14.50;;;;;17.16;85.97;99660.13;3193362;41;2798149;-59
2021/07/21 01:11:03;;;;;;;;;18.00;18.00;;;;;16.99;86.48;99665.22;3199010;41;2498168;-59
2021/07/21 01:13:47;;;;;;;;;24.00;18.50;;;;;17.19;85.62;99666.13;3184876;41;2835667;-59
2021/07/21 01:16:22;;;;;;;;;21.50;19.50;;;;;17.14;87.04;99657.56;3184609;41;2835735;-59
2021/07/21 01:19:03;;;;;;;;;19.00;17.00;;;;;17.17;85.87;99657.28;3191503;41;2825251;-59
2021/07/21 01:22:02;;;;;;;;;20.50;20.50;;;;;17.33;85.58;99665.75;3193783;41;2833576;-59
2021/07/21 01:25:16;;;;;;;;;19.00;18.00;;;;;17.20;86.30;99657.00;3197016;41;2829366;-60
2021/07/21 01:27:56;;;;;;;;;19.50;18.00;;;;;17.22;86.24;99671.31;3181648;41;2834599;-59
2021/07/21 01:30:32;;;;;;;;;24.00;21.00;;;;;17.38;86.50;99664.47;3166444;41;3581479;-59
2021/07/21 01:33:10;;;;;;;;;25.67;19.67;;;;;17.39;86.49;99668.91;3173678;41;2842981;-59
2021/07/21 01:36:00;;;;;;;;;24.50;19.00;;;;;17.11;88.06;99658.69;3207658;41;2837771;-59
2021/07/21 01:38:34;;;;;;;;;19.50;19.00;;;;;17.30;87.89;99657.91;3190940;41;2833572;-59
2021/07/21 01:41:09;;;;;;;;;18.50;18.50;;;;;17.23;87.57;99656.72;3184193;41;2489815;-59
2021/07/21 01:43:41;;;;;;;;;21.50;20.00;;;;;17.10;88.71;99661.53;3194171;41;2491895;-59
2021/07/21 01:46:11;;;;;;;;;22.00;19.00;;;;;17.30;88.69;99654.34;3185022;41;2841885;-59
2021/07/21 01:48:43;;;;;;;;;20.50;17.00;;;;;17.31;88.07;99656.03;3194070;41;2827317;-59
2021/07/21 01:51:12;;;;;;;;;23.50;22.00;;;;;17.38;87.35;99654.50;3189316;41;2847094;-58
2021/07/21 01:53:43;;;;;;;;;21.50;18.50;;;;;17.53;87.41;99646.78;3197816;41;2831485;-59
2021/07/21 01:56:12;;;;;;;;;22.50;21.00;;;;;17.32;87.50;99645.06;3184827;41;2844027;-59
2021/07/21 01:58:41;;;;;;;;;19.00;18.00;;;;;17.55;86.08;99656.53;3181928;41;2832531;-61
2021/07/21 02:01:13;;;;;;;;;20.50;20.00;;;;;17.25;88.15;99652.03;3186451;41;2831478;-58
2021/07/21 02:03:41;;;;;;;;;18.00;17.00;;;;;17.30;87.51;99652.47;3192364;41;2481480;-59
2021/07/21 02:06:09;;;;;;;;;20.00;20.00;;;;;17.25;88.36;99653.88;3196807;41;3570017;-58
2021/07/21 02:08:38;;;;;;;;;19.50;19.50;;;;;17.56;86.41;99646.50;3182608;41;2825267;-59
2021/07/21 02:11:07;;;;;;;;;19.00;19.00;;;;;17.20;87.80;99646.16;3192578;41;2839889;-59
2021/07/21 02:13:36;;;;;;;;;19.50;19.50;;;;;17.48;87.05;99654.50;3194604;41;2826276;-59
2021/07/21 02:16:06;;;;;;;;;18.00;14.00;;;;;17.48;86.15;99658.09;3192236;41;2806498;-59
2021/07/21 02:18:34;;;;;;;;;17.00;16.00;;;;;17.39;86.54;99652.63;3194050;41;2821077;-59
2021/07/21 02:21:06;;;;;;;;;18.50;17.00;;;;;17.26;87.56;99653.72;3194592;41;2831522;-59
2021/07/21 02:23:35;;;;;;;;;21.00;21.00;;;;;17.28;87.05;99657.16;3192011;41;2839806;-59
2021/07/21 02:26:04;;;;;;;;;20.00;19.50;;;;;16.78;89.83;99659.81;3209042;41;2830466;-59
2021/07/21 02:28:34;;;;;;;;;18.00;17.00;;;;;16.66;90.29;99663.56;3189080;41;2825260;-59
2021/07/21 02:31:09;;;;;;;;;21.50;17.50;;;;;17.18;89.19;99669.84;3193915;41;2833611;-59
2021/07/21 02:33:46;;;;;;;;;21.00;17.00;;;;;17.41;86.66;99669.66;3185055;41;2832551;-58
2021/07/21 02:36:14;;;;;;;;;21.00;20.50;;;;;17.61;85.71;99676.81;3192827;41;2831501;-59
2021/07/21 02:38:42;;;;;;;;;19.00;19.00;;;;;17.40;86.89;99676.06;3192353;40;2826304;-59
2021/07/21 02:41:09;;;;;;;;;16.00;16.00;;;;;17.37;87.17;99671.75;3194582;41;2489816;-58
2021/07/21 02:43:37;;;;;;;;;19.67;17.67;;;;;17.39;86.58;99679.78;3194967;41;3562745;-59
2021/07/21 02:46:06;;;;;;;;;18.00;17.00;;;;;17.34;85.78;99675.59;3192915;41;2827319;-58
2021/07/21 02:48:34;;;;;;;;;18.50;18.00;;;;;17.44;85.95;99677.50;3197404;41;2481510;-57
2021/07/21 02:52:14;;;;;;;;;23.00;19.00;;;;;17.43;86.05;99673.94;3194822;41;2485653;-59
2021/07/21 02:54:55;;;;;;;;;17.00;17.00;;;;;17.45;85.34;99681.94;3146511;41;3558611;-58
2021/07/21 02:57:48;;;;;;;;;22.00;20.00;;;;;17.25;85.77;99681.88;3145957;41;2837791;-59
2021/07/21 03:00:19;;;;;;;;;17.00;15.00;;;;;17.37;85.27;99685.31;3187487;41;2819009;-59
2021/07/21 03:02:50;;;;;;;;;23.00;21.50;;;;;17.13;85.70;99682.09;3196530;41;2845010;-59
2021/07/21 03:05:22;;;;;;;;;15.00;15.00;;;;;17.06;85.48;99682.66;3186476;41;2498146;-59
2021/07/21 03:07:57;;;;;;;;;16.50;16.50;;;;;17.09;85.08;99693.25;3184677;41;2823168;-59
2021/07/21 03:10:28;;;;;;;;;25.50;24.50;;;;;16.98;86.33;99695.16;3188858;41;2827311;-59
2021/07/21 03:13:04;;;;;;;;;27.00;21.00;;;;;17.06;86.46;99693.50;3185089;41;2848151;-59
2021/07/21 03:15:38;;;;;;;;;30.00;23.00;;;;;16.78;86.33;99696.94;3189065;41;2869193;-60
2021/07/21 03:18:12;;;;;;;;;20.67;18.00;;;;;16.61;87.51;99698.34;3215777;40;3561652;-58
2021/07/21 03:20:45;;;;;;;;;25.00;23.00;;;;;16.33;88.43;99700.75;3184951;41;2832507;-58
2021/07/21 03:23:13;;;;;;;;;21.67;21.67;;;;;16.35;89.82;99709.59;3187454;41;3571109;-58
2021/07/21 03:25:42;;;;;;;;;25.00;25.00;;;;;15.94;91.05;99715.78;3212079;41;3574472;-59
2021/07/21 03:28:11;;;;;;;;;23.67;22.33;;;;;16.29;90.13;99710.09;3183845;41;2850266;-59
2021/07/21 03:30:39;;;;;;;;;28.33;24.67;;;;;16.29;90.04;99711.97;3209067;41;3589784;-58
2021/07/21 03:33:09;;;;;;;;;27.33;23.67;;;;;16.05;90.84;99712.19;3193810;41;2848155;-59
2021/07/21 03:35:38;;;;;;;;;30.50;23.00;;;;;16.18;91.67;99715.56;3200425;41;2850206;-59
2021/07/21 03:38:07;;;;;;;;;24.00;24.00;;;;;16.38;90.38;99709.34;3185571;41;2843953;-59
2021/07/21 03:40:38;;;;;;;;;29.67;22.67;;;;;16.26;90.89;99710.38;3194349;41;2851253;-59
2021/07/21 03:43:07;;;;;;;;;30.33;26.33;;;;;16.28;89.90;99716.53;3210521;41;2845102;-59
2021/07/21 03:45:35;;;;;;;;;28.00;22.50;;;;;16.55;88.66;99720.56;3207444;41;2848202;-59
2021/07/21 03:48:05;;;;;;;;;30.00;26.00;;;;;16.64;87.24;99731.50;3192681;41;2855438;-59
2021/07/21 03:50:34;;;;;;;;;28.67;27.00;;;;;16.55;87.09;99723.28;3194247;41;2854519;-59
2021/07/21 03:53:03;;;;;;;;;28.50;24.50;;;;;16.71;86.86;99726.38;3200224;41;2843185;-58
2021/07/21 03:55:36;;;;;;;;;28.00;25.50;;;;;16.51;88.90;99725.41;3193716;41;2839901;-59
2021/07/21 03:58:08;;;;;;;;;31.67;30.33;;;;;16.70;88.34;99729.25;3185890;41;3602288;-60
2021/07/21 04:00:37;;;;;;;;;33.33;28.67;;;;;16.61;88.32;99736.31;3211203;41;2856567;-60
2021/07/21 04:03:06;;;;;;;;;31.33;28.00;;;;;16.57;87.96;99741.13;3213303;41;3592928;-60
2021/07/21 04:05:36;;;;;;;;;30.67;28.33;;;;;16.82;86.17;99747.19;3193802;41;2850651;-59
2021/07/21 04:08:05;;;;;;;;;25.50;23.00;;;;;16.73;86.64;99746.09;3204512;41;2841893;-59
2021/07/21 04:10:34;;;;;;;;;25.67;24.00;;;;;16.41;89.23;99740.72;3195109;41;2841913;-59
2021/07/21 04:13:03;;;;;;;;;28.00;27.33;;;;;16.77;86.50;99747.59;3205180;41;2854452;-59
2021/07/21 04:15:32;;;;;;;;;29.00;22.33;;;;;16.82;86.65;99745.31;3202730;41;2853436;-59
2021/07/21 04:18:02;;;;;;;;;20.33;18.67;;;;;16.62;87.68;99751.59;3212976;41;3568944;-59
2021/07/21 04:20:31;;;;;;;;;22.50;20.50;;;;;17.00;85.95;99752.84;3201510;41;2832518;-59
2021/07/21 04:23:01;;;;;;;;;27.00;25.00;;;;;17.31;82.93;99756.44;3188974;41;2848123;-59
2021/07/21 04:25:31;;;;;;;;;22.00;22.00;;;;;17.58;81.81;99768.56;3201512;41;2846140;-59
2021/07/21 04:28:00;;;;;;;;;23.00;22.50;;;;;17.21;83.09;99767.25;3194832;41;2837167;-59
2021/07/21 04:30:33;;;;;;;;;21.00;21.00;;;;;17.37;82.50;99768.63;3184995;41;2830432;-59
2021/07/21 04:33:01;;;;;;;;;24.50;21.00;;;;;17.56;82.01;99771.41;3194134;41;2839809;-59
2021/07/21 04:35:29;;;;;;;;;23.00;22.00;;;;;17.57;81.35;99769.56;3195908;41;2498134;-59
2021/07/21 04:37:58;;;;;;;;;22.00;21.00;;;;;17.35;82.91;99763.31;3184669;41;2841898;-59
2021/07/21 04:40:26;;;;;;;;;21.50;21.00;;;;;17.30;82.72;99776.47;3193537;41;2841901;-59
2021/07/21 04:42:54;;;;;;;;;22.00;21.00;;;;;17.37;81.25;99771.31;3182390;41;2831484;-60
2021/07/21 04:45:23;;;;;;;;;22.50;21.00;;;;;17.55;81.86;99780.56;3185993;41;2844282;-59
2021/07/21 04:47:53;;;;;;;;;22.00;21.00;;;;;17.76;81.74;99777.78;3193526;41;2835690;-59
2021/07/21 04:50:23;;;;;;;;;23.00;21.50;;;;;17.95;79.89;99782.41;3189463;41;2827319;-58
2021/07/21 04:52:51;;;;;;;;;24.50;20.50;;;;;18.18;79.81;99783.91;3185987;41;2833636;-59
2021/07/21 04:55:18;;;;;;;;;23.00;22.00;;;;;18.13;78.89;99775.31;3193769;41;2481483;-58
2021/07/21 04:57:48;;;;;;;;;23.33;18.67;;;;;17.92;80.55;99777.28;3194871;41;3574151;-59
2021/07/21 05:00:16;;;;;;;;;23.00;20.50;;;;;18.33;79.46;99786.22;3190222;41;2835695;-58
2021/07/21 05:02:45;;;;;;;;;22.50;21.00;;;;;18.09;80.31;99779.31;3192570;41;2835680;-59
2021/07/21 05:05:13;;;;;;;;;23.00;19.50;;;;;18.28;78.80;99780.34;3187473;41;2841897;-59
2021/07/21 05:07:42;;;;;;;;;24.00;22.67;;;;;18.47;77.53;99782.22;3190406;41;2841909;-58
2021/07/21 05:10:10;;;;;;;;;20.50;18.00;;;;;18.60;77.15;99788.22;3209995;41;2846029;-58
2021/07/21 05:12:43;;;;;;;;;19.00;18.00;;;;;18.89;75.53;99782.78;3190878;41;2489824;-59
2021/07/21 05:15:14;;;;;;;;;17.00;17.00;;;;;19.00;75.31;99788.06;3194652;41;2496050;-59
2021/07/21 05:17:42;;;;;;;;;21.00;19.00;;;;;19.13;75.49;99782.31;3196419;41;2837730;-59
2021/07/21 05:20:10;;;;;;;;;18.00;17.00;;;;;19.29;74.29;99788.00;3195166;41;2839795;-59
2021/07/21 05:22:45;;;;;;;;;22.50;18.50;;;;;19.62;72.62;99796.63;3194337;41;2837747;-59
2021/07/21 05:25:18;;;;;;;;;21.00;21.00;;;;;19.57;72.31;99796.22;3201025;41;3571031;-59
2021/07/21 05:27:46;;;;;;;;;21.50;18.00;;;;;19.72;71.73;99785.69;3192696;41;2839842;-60
2021/07/21 05:30:15;;;;;;;;;16.50;16.50;;;;;18.87;74.55;99790.22;3193595;41;2825318;-59
2021/07/21 05:32:43;;;;;;;;;18.00;18.00;;;;;19.41;74.35;99796.84;3196494;41;2837719;-58
2021/07/21 05:35:12;;;;;;;;;18.67;18.33;;;;;19.87;70.71;99800.53;3197608;41;3559624;-59
2021/07/21 05:37:40;;;;;;;;;19.33;18.33;;;;;19.67;73.40;99804.41;3194398;41;3575209;-59
2021/07/21 05:40:08;;;;;;;;;18.00;18.00;;;;;20.07;71.58;99811.34;3196237;41;2832563;-58
2021/07/21 05:42:36;;;;;;;;;16.33;16.00;;;;;20.27;71.16;99823.84;3208599;41;2489866;-59
2021/07/21 05:45:04;;;;;;;;;20.00;17.00;;;;;20.28;68.83;99831.03;3210897;41;3569346;-59
2021/07/21 05:47:32;;;;;;;;;19.67;18.67;;;;;20.15;69.44;99830.53;3184598;41;2481479;-59
2021/07/21 05:50:00;;;;;;;;;22.50;21.50;;;;;20.27;68.91;99832.00;3203553;41;2838855;-59
2021/07/21 05:52:28;;;;;;;;;20.00;19.00;;;;;20.24;70.46;99835.06;3191949;41;2830431;-59
2021/07/21 05:54:56;;;;;;;;;18.50;16.00;;;;;20.54;69.46;99841.22;3194151;41;2824206;-60
2021/07/21 05:57:27;;;;;;;;;18.00;18.00;;;;;20.73;68.49;99835.59;3197734;40;2829484;-58
2021/07/21 05:59:55;;;;;;;;;16.50;16.50;;;;;20.75;68.80;99849.97;3184688;41;2825279;-58
2021/07/21 06:02:23;;;;;;;;;19.00;19.00;;;;;20.78;69.35;99851.53;3193930;41;2832522;-59
2021/07/21 06:04:53;;;;;;;;;18.33;16.33;;;;;20.94;68.75;99851.66;3193105;41;3562694;-59
2021/07/21 06:07:21;;;;;;;;;20.00;18.50;;;;;20.87;69.79;99852.44;3192644;41;2827334;-59
2021/07/21 06:09:49;;;;;;;;;17.00;17.00;;;;;20.86;68.68;99850.75;3194269;41;2823159;-59
2021/07/21 06:12:17;;;;;;;;;22.50;20.50;;;;;20.69;69.10;99861.47;3192179;41;2829455;-59
2021/07/21 06:14:46;;;;;;;;;16.67;16.67;;;;;20.97;68.13;99858.69;3195293;41;2487753;-59
2021/07/21 06:17:15;;;;;;;;;18.50;18.50;;;;;21.07;68.25;99862.19;3208080;41;2841922;-57
2021/07/21 06:19:43;;;;;;;;;19.00;19.00;;;;;21.17;68.31;99862.97;3187363;41;2836685;-57
2021/07/21 06:22:12;;;;;;;;;16.00;15.50;;;;;21.09;67.59;99868.34;3193659;41;2815856;-58
2021/07/21 06:24:41;;;;;;;;;17.00;17.00;;;;;21.38;67.24;99862.63;3196165;41;3562681;-57
2021/07/21 06:27:09;;;;;;;;;23.00;17.00;;;;;21.64;66.52;99879.03;3195296;41;2838796;-57
2021/07/21 06:29:38;;;;;;;;;21.33;19.00;;;;;21.42;67.81;99857.69;3197996;41;2840174;-57
2021/07/21 06:32:07;;;;;;;;;17.00;17.00;;;;;21.78;65.73;99868.53;3210632;41;2821093;-57
2021/07/21 06:34:35;;;;;;;;;18.67;18.67;;;;;21.87;65.19;99873.00;3204408;41;2483571;-57
2021/07/21 06:37:03;;;;;;;;;15.67;15.67;;;;;22.08;64.60;99870.72;3208988;41;2489808;-58
2021/07/21 06:39:31;;;;;;;;;16.00;14.67;;;;;22.33;64.47;99874.44;3216475;41;2811690;-58
2021/07/21 06:41:58;;;;;;;;;17.33;16.67;;;;;22.31;64.79;99883.84;3212476;41;3566859;-57
2021/07/21 06:44:26;;;;;;;;;14.00;14.00;;;;;22.37;62.64;99891.38;3193296;41;2800269;-58
2021/07/21 06:46:54;;;;;;;;;18.00;16.50;;;;;22.79;61.53;99890.47;3189579;41;2825228;-58
2021/07/21 06:49:23;;;;;;;;;18.67;15.00;;;;;22.73;61.93;99896.63;3197024;41;3546013;-58
2021/07/21 06:51:51;;;;;;;;;14.33;13.00;;;;;23.12;60.76;99907.84;3213761;41;2797111;-58
2021/07/21 06:54:19;;;;;;;;;20.00;15.50;;;;;23.38;60.00;99906.78;3209505;41;2824180;-58
2021/07/21 06:56:47;;;;;;;;;18.33;16.67;;;;;23.53;59.14;99905.06;3195724;40;2485674;-57
2021/07/21 06:59:14;;;;;;;;;14.33;13.00;;;;;23.41;59.15;99906.47;3215441;41;2485657;-58
2021/07/21 07:01:42;;;;;;;;;16.00;14.00;;;;;23.56;59.17;99909.34;3209598;41;2809610;-58
2021/07/21 07:04:10;;;;;;;;;17.67;15.00;;;;;23.65;59.60;99908.31;3197360;41;3551231;-57
2021/07/21 07:06:38;;;;;;;;;13.00;13.00;;;;;24.07;57.69;99909.97;3216157;41;3510616;-58
2021/07/21 07:09:06;;;;;;;;;16.00;14.50;;;;;23.93;57.69;99913.44;3209521;41;2820305;-58
2021/07/21 07:11:34;;;;;;;;;17.00;15.50;;;;;24.08;55.60;99908.94;3194784;41;2819076;-57
2021/07/21 07:14:02;;;;;;;;;18.00;14.00;;;;;24.49;55.69;99923.41;3191601;41;2805709;-58
2021/07/21 07:16:30;;;;;;;;;14.33;14.33;;;;;24.20;55.56;99918.50;3195411;41;2481471;-58
2021/07/21 07:18:58;;;;;;;;;15.67;14.00;;;;;23.98;56.60;99914.63;3210664;41;3533551;-58
2021/07/21 07:21:29;;;;;;;;;13.67;12.67;;;;;23.71;56.63;99918.59;3196688;41;3516875;-58
2021/07/21 07:23:57;;;;;;;;;13.67;13.00;;;;;24.39;55.96;99921.88;3194570;41;3536642;-58
2021/07/21 07:26:25;;;;;;;;;13.00;13.00;;;;;24.64;53.27;99920.72;3196704;41;3543940;-58
2021/07/21 07:28:57;;;;;;;;;15.67;14.33;;;;;23.84;54.96;99918.94;3195475;41;3522068;-57
2021/07/21 07:31:24;;;;;;;;;15.00;15.00;;;;;24.80;54.45;99925.28;3185674;41;3546035;-57
2021/07/21 07:33:52;;;;;;;;;14.33;12.00;;;;;23.75;56.44;99925.50;3198549;41;3509603;-58
2021/07/21 07:36:20;;;;;;;;;10.33;10.33;;;;;23.00;58.65;99921.00;3214492;41;2783563;-57
2021/07/21 07:38:48;;;;;;;;;16.33;15.33;;;;;24.00;55.49;99928.16;3214164;41;2814855;-58
2021/07/21 07:41:16;;;;;;;;;13.67;13.00;;;;;23.49;56.63;99930.28;3217463;41;2785622;-58
2021/07/21 07:43:44;;;;;;;;;14.67;14.67;;;;;24.42;54.18;99938.81;3210357;41;3532511;-57
2021/07/21 07:46:12;;;;;;;;;12.00;12.00;;;;;24.70;53.08;99936.50;3189553;41;3517908;-58
2021/07/21 07:48:41;;;;;;;;;9.40;9.40;;;;;24.59;52.79;99938.78;3228548;41;2776517;-58
2021/07/21 07:51:10;;;;;;;;;50.00;35.33;;;;;24.13;54.70;99931.22;3195719;41;3629357;-59
2021/07/21 07:53:38;;;;;;;;;14.33;11.00;;;;;22.57;57.46;99924.81;3193890;41;3513762;-58
2021/07/21 07:56:06;;;;;;;;;15.00;15.00;;;;;24.94;53.21;99929.16;3213240;41;3537972;-58
2021/07/21 07:58:34;;;;;;;;;13.33;11.33;;;;;25.07;53.11;99942.31;3194269;41;3517936;-58
2021/07/21 08:01:02;;;;;;;;;15.33;14.67;;;;;25.47;50.41;99935.66;3194291;41;3533555;-58
2021/07/21 08:03:30;;;;;;;;;11.00;11.00;;;;;24.85;52.70;99941.22;3197124;41;3511685;-58
2021/07/21 08:05:59;;;;;;;;;16.00;13.00;;;;;24.81;52.44;99932.50;3209607;41;3526246;-58
2021/07/21 08:08:27;;;;;;;;;13.33;13.33;;;;;25.24;50.97;99940.31;3194941;41;3506465;-59
2021/07/21 08:10:55;;;;;;;;;11.00;11.00;;;;;24.81;50.55;99937.13;3197913;41;2790882;-58
2021/07/21 08:13:24;;;;;;;;;15.00;14.00;;;;;25.02;51.42;99931.00;3209769;41;3537703;-58
2021/07/21 08:15:52;;;;;;;;;12.33;11.00;;;;;24.74;51.63;99934.25;3195017;41;3510692;-58
2021/07/21 08:18:20;;;;;;;;;15.00;13.00;;;;;25.08;49.00;99931.09;3189976;41;3523179;-58
2021/07/21 08:20:48;;;;;;;;;14.00;13.67;;;;;24.94;50.24;99935.50;3198180;41;2800213;-58
2021/07/21 08:23:16;;;;;;;;;13.33;13.33;;;;;24.79;51.62;99940.06;3212843;41;3528323;-58
2021/07/21 08:25:45;;;;;;;;;14.67;14.00;;;;;24.50;52.68;99946.22;3210238;41;3525176;-57
2021/07/21 08:28:16;;;;;;;;;14.00;13.67;;;;;25.32;50.23;99934.75;3185438;41;3510635;-58
2021/07/21 08:30:45;;;;;;;;;13.00;13.00;;;;;25.57;49.41;99950.00;3213903;41;2481468;-58
2021/07/21 08:33:13;;;;;;;;;13.33;12.00;;;;;25.80;49.33;99943.59;3210441;41;2487709;-58
2021/07/21 08:35:44;;;;;;;;;13.00;13.00;;;;;25.94;48.60;99951.06;3210483;41;3523128;-57
2021/07/21 08:38:12;;;;;;;;;19.67;14.67;;;;;26.05;47.87;99938.72;3188795;41;3552278;-57
2021/07/21 08:40:41;;;;;;;;;12.33;12.33;;;;;25.21;49.17;99943.44;3194390;41;3528321;-57
2021/07/21 08:43:26;;;;;;;;;13.33;12.33;;;;;25.53;46.74;99950.56;3195751;41;2490161;-57
2021/07/21 08:45:55;;;;;;;;;12.33;12.33;;;;;25.34;47.80;99949.16;3208295;41;3507492;-57
2021/07/21 08:48:23;;;;;;;;;11.67;10.67;;;;;24.18;49.43;99945.25;3209721;41;3508526;-58
2021/07/21 08:50:51;;;;;;;;;12.00;10.00;;;;;25.49;48.20;99947.31;3198853;41;2787717;-58
2021/07/21 08:53:19;;;;;;;;;10.00;10.00;;;;;25.32;46.18;99957.59;3216414;41;2767930;-57
2021/07/21 08:55:49;;;;;;;;;14.00;12.67;;;;;26.05;45.19;99953.34;3209230;41;3504382;-58
2021/07/21 08:58:20;;;;;;;;;10.33;10.00;;;;;26.22;45.89;99953.16;3222524;40;2787717;-58
2021/07/21 09:00:53;;;;;;;;;16.00;13.00;;;;;26.20;45.80;99963.53;3211822;41;3522082;-57
2021/07/21 09:03:22;;;;;;;;;10.67;10.67;;;;;26.48;44.91;99964.53;3216011;41;3514779;-58
2021/07/21 09:05:52;;;;;;;;;13.00;11.33;;;;;26.05;45.42;99961.59;3214515;41;3511682;-58
2021/07/21 09:08:20;;;;;;;;;15.00;14.00;;;;;25.58;46.33;99962.69;3212141;41;2481890;-58
2021/07/21 09:10:49;;;;;;;;;13.00;12.00;;;;;25.98;45.52;99962.53;3214102;41;2481478;-57
2021/07/21 09:13:17;;;;;;;;;11.00;11.00;;;;;25.35;45.59;99961.84;3211338;41;3511710;-57
2021/07/21 09:15:48;;;;;;;;;12.67;11.67;;;;;25.67;46.14;99966.22;3208718;41;3510628;-58
2021/07/21 09:18:18;;;;;;;;;16.33;10.33;;;;;24.92;46.99;99956.78;3216740;41;2803330;-56
2021/07/21 09:21:08;;;;;;;;;15.00;11.33;;;;;26.38;44.63;99946.59;3212462;41;2487738;-57
2021/07/21 09:23:45;;;;;;;;;10.80;10.00;;;;;26.53;44.65;99954.91;3228801;41;2784596;-58
2021/07/21 09:26:23;;;;;;;;;14.67;12.00;;;;;26.26;44.06;99952.59;3201289;41;2796065;-57
2021/07/21 09:28:52;;;;;;;;;14.00;12.33;;;;;26.55;43.79;99953.66;3209761;41;3516887;-58
2021/07/21 09:31:35;;;;;;;;;12.00;12.00;;;;;25.55;45.18;99957.56;3209987;41;3512693;-57
2021/07/21 09:34:23;;;;;;;;;8.00;8.00;;;;;24.95;46.07;99955.56;3215004;41;2739813;-57
2021/07/21 09:37:08;;;;;;;;;12.00;12.00;;;;;24.74;46.61;99951.56;3212215;41;2481518;-58
2021/07/21 09:39:42;;;;;;;;;12.67;11.00;;;;;25.82;44.81;99947.88;3212466;41;3511658;-59
2021/07/21 09:42:12;;;;;;;;;11.00;11.00;;;;;26.41;43.54;99958.13;3209611;41;3510628;-58
2021/07/21 09:45:19;;;;;;;;;12.67;11.33;;;;;26.53;44.47;99954.91;3207195;41;3505472;-58
2021/07/21 09:48:00;;;;;;;;;13.33;13.00;;;;;26.13;45.16;99948.81;3207893;41;3507535;-57
2021/07/21 09:50:30;;;;;;;;;12.00;12.00;;;;;25.46;45.42;99947.69;3206740;41;3529346;-57
2021/07/21 09:53:06;;;;;;;;;13.00;10.67;;;;;26.85;44.09;99948.94;3214252;41;2790114;-58
2021/07/21 09:55:36;;;;;;;;;13.33;12.00;;;;;26.68;44.06;99950.22;3210620;41;3516140;-58
2021/07/21 09:58:11;;;;;;;;;12.33;10.67;;;;;26.65;41.40;99950.63;3209531;41;3507555;-58
2021/07/21 10:00:46;;;;;;;;;9.00;9.00;;;;;25.29;43.80;99949.72;3209957;41;3466911;-57
2021/07/21 10:03:23;;;;;;;;;12.67;12.00;;;;;26.65;42.86;99958.88;3214320;41;2793975;-57
2021/07/21 10:06:01;;;;;;;;;11.67;11.33;;;;;25.92;43.66;99953.13;3210382;41;3517948;-57
2021/07/21 10:08:35;;;;;;;;;13.33;13.33;;;;;25.92;43.97;99953.13;3196454;41;3532499;-57
2021/07/21 10:11:24;;;;;;;;;11.67;11.67;;;;;25.71;43.74;99952.97;3196911;41;2791911;-58
2021/07/21 10:14:14;;;;;;;;;14.67;13.00;;;;;27.22;42.04;99951.72;3211680;41;2791906;-58
2021/07/21 10:16:51;;;;;;;;;12.33;10.67;;;;;26.74;43.29;99952.19;3209455;41;3508533;-58
2021/07/21 10:19:19;;;;;;;;;12.00;12.00;;;;;26.30;43.63;99953.06;3212728;41;2783617;-57
2021/07/21 10:22:00;;;;;;;;;9.00;9.00;;;;;25.75;43.41;99954.28;3219233;41;2746053;-58
2021/07/21 10:24:32;;;;;;;;;12.00;12.00;;;;;25.50;43.98;99954.53;3212939;41;2791974;-57
2021/07/21 10:27:01;;;;;;;;;16.67;12.33;;;;;25.16;45.10;99952.22;3209647;40;3527304;-56
2021/07/21 10:29:29;;;;;;;;;12.33;9.67;;;;;25.25;46.61;99950.25;3213449;41;3509936;-56
2021/07/21 10:31:57;;;;;;;;;13.33;11.67;;;;;25.25;46.21;99961.25;3196384;41;2787819;-57
2021/07/21 10:34:26;;;;;;;;;12.33;12.33;;;;;24.99;46.26;99954.19;3208824;41;3530404;-57
2021/07/21 10:36:55;;;;;;;;;12.33;12.33;;;;;25.12;46.19;99957.19;3213340;41;3524158;-56
2021/07/21 10:39:33;;;;;;;;;15.00;13.67;;;;;25.46;44.50;99953.19;3193211;41;3538759;-56
2021/07/21 10:42:08;;;;;;;;;10.67;10.67;;;;;25.56;46.27;99962.03;3191008;41;2789836;-57
2021/07/21 10:44:37;;;;;;;;;11.67;10.67;;;;;25.60;44.76;99957.88;3205722;41;2786699;-58
2021/07/21 10:47:25;;;;;;;;;12.33;12.33;;;;;26.05;45.16;99963.50;3205334;41;2787721;-58
2021/07/21 10:49:57;;;;;;;;;16.00;16.00;;;;;26.33;45.78;99954.56;3212061;41;3558630;-57
2021/07/21 10:52:42;;;;;;;;;10.33;10.33;;;;;25.33;46.29;99958.44;3194449;41;3510869;-56
2021/07/21 10:55:28;;;;;;;;;8.80;8.80;;;;;24.42;48.56;99962.69;3223737;41;2758567;-57
2021/07/21 11:01:26;;;;;;;;;12.00;12.00;;;;;24.98;49.29;99961.56;3209489;41;3530459;-57
2021/07/21 11:04:03;;;;;;;;;15.00;12.00;;;;;24.93;48.97;99960.38;3195387;41;3524154;-56
2021/07/21 11:06:51;;;;;;;;;15.33;15.33;;;;;24.77;50.58;99957.75;3215037;41;2808626;-56
2021/07/21 11:09:34;;;;;;;;;12.00;9.33;;;;;24.96;49.93;99954.53;3214068;41;2779396;-57
2021/07/21 11:12:02;;;;;;;;;14.33;13.33;;;;;25.69;48.77;99957.81;3213334;41;3515853;-58
2021/07/21 11:14:35;;;;;;;;;11.00;11.00;;;;;25.43;47.55;99959.03;3209088;41;3517924;-57
2021/07/21 11:17:12;;;;;;;;;9.00;7.00;;;;;24.64;47.94;99948.19;3207887;41;2742935;-58
2021/07/21 11:19:48;;;;;;;;;11.67;11.67;;;;;25.44;47.13;99938.78;3202630;41;3510640;-59
2021/07/21 11:22:19;;;;;;;;;14.00;14.00;;;;;26.41;45.19;99949.84;3193078;41;3538024;-56
2021/07/21 11:25:12;;;;;;;;;15.33;12.33;;;;;26.90;43.40;99945.59;3194284;41;3530673;-57